sensor_id;sensor_type;location;lat;lon;timestamp;P1;durP1;ratioP1;P2;durP2;ratioP2
53064;SDS011;38948;48.376;-4.312;2022-08-19T00:02:12;4.13;;;1.70;;
53064;SDS011;38948;48.376;-4.312;2022-08-19T00:04:38;5.78;;;2.45;;
53064;SDS011;38948;48.376;-4.312;2022-08-19T00:07:05;8.20;;;2.13;;
53064;SDS011;38948;48.376;-4.312;2022-08-19T00:09:31;4.20;;;1.88;;
53064;SDS011;38948;48.376;-4.312;2022-08-19T00:11:57;6.78;;;1.92;;
53064;SDS011;38948;48.376;-4.312;2022-08-19T00:14:24;5.63;;;2.05;;
53064;SDS011;38948;48.376;-4.312;2022-08-19T00:16:51;4.70;;;2.08;;
53064;SDS011;38948;48.376;-4.312;2022-08-19T00:19:19;4.57;;;1.70;;
53064;SDS011;38948;48.376;-4.312;2022-08-19T00:21:46;6.28;;;2.00;;
53064;SDS011;38948;48.376;-4.312;2022-08-19T00:24:12;6.28;;;1.83;;
53064;SDS011;38948;48.376;-4.312;2022-08-19T00:26:40;5.88;;;2.25;;
53064;SDS011;38948;48.376;-4.312;2022-08-19T00:29:07;4.35;;;2.05;;
53064;SDS011;38948;48.376;-4.312;2022-08-19T00:31:34;5.32;;;1.90;;
53064;SDS011;38948;48.376;-4.312;2022-08-19T00:34:03;6.40;;;2.05;;
53064;SDS011;38948;48.376;-4.312;2022-08-19T00:36:29;6.97;;;2.35;;
53064;SDS011;38948;48.376;-4.312;2022-08-19T00:38:59;4.38;;;2.13;;
53064;SDS011;38948;48.376;-4.312;2022-08-19T00:41:31;6.55;;;1.85;;
53064;SDS011;38948;48.376;-4.312;2022-08-19T00:43:59;8.00;;;2.05;;
53064;SDS011;38948;48.376;-4.312;2022-08-19T00:46:31;6.43;;;1.75;;
53064;SDS011;38948;48.376;-4.312;2022-08-19T00:48:59;6.95;;;2.15;;
53064;SDS011;38948;48.376;-4.312;2022-08-19T00:51:26;4.55;;;1.92;;
53064;SDS011;38948;48.376;-4.312;2022-08-19T00:53:55;9.25;;;2.13;;
53064;SDS011;38948;48.376;-4.312;2022-08-19T00:56:23;9.00;;;2.25;;
53064;SDS011;38948;48.376;-4.312;2022-08-19T00:58:51;8.35;;;2.00;;
53064;SDS011;38948;48.376;-4.312;2022-08-19T01:01:17;3.90;;;2.03;;
53064;SDS011;38948;48.376;-4.312;2022-08-19T01:03:43;6.97;;;2.38;;
53064;SDS011;38948;48.376;-4.312;2022-08-19T01:06:08;6.28;;;2.10;;
53064;SDS011;38948;48.376;-4.312;2022-08-19T01:08:34;6.22;;;2.45;;
53064;SDS011;38948;48.376;-4.312;2022-08-19T01:11:00;5.18;;;1.70;;
53064;SDS011;38948;48.376;-4.312;2022-08-19T01:13:27;4.00;;;1.63;;
53064;SDS011;38948;48.376;-4.312;2022-08-19T01:15:59;7.53;;;2.22;;
53064;SDS011;38948;48.376;-4.312;2022-08-19T01:18:31;6.35;;;2.00;;
53064;SDS011;38948;48.376;-4.312;2022-08-19T01:21:02;6.93;;;1.73;;
53064;SDS011;38948;48.376;-4.312;2022-08-19T01:23:34;6.65;;;1.77;;
53064;SDS011;38948;48.376;-4.312;2022-08-19T01:26:14;5.80;;;1.98;;
53064;SDS011;38948;48.376;-4.312;2022-08-19T01:28:43;7.43;;;2.40;;
53064;SDS011;38948;48.376;-4.312;2022-08-19T01:31:12;6.45;;;1.75;;
53064;SDS011;38948;48.376;-4.312;2022-08-19T01:33:40;8.73;;;2.08;;
53064;SDS011;38948;48.376;-4.312;2022-08-19T01:36:14;7.50;;;1.70;;
53064;SDS011;38948;48.376;-4.312;2022-08-19T01:38:51;8.20;;;1.88;;
53064;SDS011;38948;48.376;-4.312;2022-08-19T01:41:18;6.63;;;2.22;;
53064;SDS011;38948;48.376;-4.312;2022-08-19T01:43:44;5.78;;;1.75;;
53064;SDS011;38948;48.376;-4.312;2022-08-19T01:46:10;8.25;;;2.17;;
53064;SDS011;38948;48.376;-4.312;2022-08-19T01:48:37;5.75;;;1.83;;
53064;SDS011;38948;48.376;-4.312;2022-08-19T01:51:06;6.85;;;1.73;;
53064;SDS011;38948;48.376;-4.312;2022-08-19T01:53:33;6.97;;;1.95;;
53064;SDS011;38948;48.376;-4.312;2022-08-19T01:55:59;5.75;;;1.90;;
53064;SDS011;38948;48.376;-4.312;2022-08-19T01:58:31;7.75;;;2.15;;
53064;SDS011;38948;48.376;-4.312;2022-08-19T02:01:01;6.55;;;2.00;;
53064;SDS011;38948;48.376;-4.312;2022-08-19T02:03:28;5.20;;;1.52;;
53064;SDS011;38948;48.376;-4.312;2022-08-19T02:05:55;6.07;;;1.70;;
53064;SDS011;38948;48.376;-4.312;2022-08-19T02:08:22;5.53;;;1.73;;
53064;SDS011;38948;48.376;-4.312;2022-08-19T02:10:48;8.27;;;2.58;;
53064;SDS011;38948;48.376;-4.312;2022-08-19T02:13:14;6.72;;;2.38;;
53064;SDS011;38948;48.376;-4.312;2022-08-19T02:15:41;6.13;;;1.80;;
53064;SDS011;38948;48.376;-4.312;2022-08-19T02:18:07;8.00;;;1.70;;
53064;SDS011;38948;48.376;-4.312;2022-08-19T02:20:33;6.72;;;2.08;;
53064;SDS011;38948;48.376;-4.312;2022-08-19T02:22:59;4.57;;;1.98;;
53064;SDS011;38948;48.376;-4.312;2022-08-19T02:25:26;3.25;;;1.45;;
53064;SDS011;38948;48.376;-4.312;2022-08-19T02:27:52;4.38;;;1.60;;
53064;SDS011;38948;48.376;-4.312;2022-08-19T02:30:19;5.88;;;1.80;;
53064;SDS011;38948;48.376;-4.312;2022-08-19T02:32:45;8.38;;;1.67;;
53064;SDS011;38948;48.376;-4.312;2022-08-19T02:35:12;11.07;;;2.22;;
53064;SDS011;38948;48.376;-4.312;2022-08-19T02:37:38;3.90;;;1.70;;
53064;SDS011;38948;48.376;-4.312;2022-08-19T02:40:23;3.88;;;1.65;;
53064;SDS011;38948;48.376;-4.312;2022-08-19T02:42:49;10.35;;;2.10;;
53064;SDS011;38948;48.376;-4.312;2022-08-19T02:45:15;8.10;;;2.22;;
53064;SDS011;38948;48.376;-4.312;2022-08-19T02:47:41;9.45;;;1.75;;
53064;SDS011;38948;48.376;-4.312;2022-08-19T02:50:07;4.32;;;1.70;;
53064;SDS011;38948;48.376;-4.312;2022-08-19T02:52:34;6.85;;;1.55;;
53064;SDS011;38948;48.376;-4.312;2022-08-19T02:55:00;6.15;;;1.60;;
53064;SDS011;38948;48.376;-4.312;2022-08-19T02:57:26;8.27;;;2.22;;
53064;SDS011;38948;48.376;-4.312;2022-08-19T02:59:52;6.65;;;2.13;;
53064;SDS011;38948;48.376;-4.312;2022-08-19T03:02:19;6.57;;;1.55;;
53064;SDS011;38948;48.376;-4.312;2022-08-19T03:04:45;6.95;;;1.67;;
53064;SDS011;38948;48.376;-4.312;2022-08-19T03:07:14;5.80;;;1.75;;
53064;SDS011;38948;48.376;-4.312;2022-08-19T03:09:40;7.85;;;1.60;;
53064;SDS011;38948;48.376;-4.312;2022-08-19T03:12:09;5.80;;;2.00;;
53064;SDS011;38948;48.376;-4.312;2022-08-19T03:14:36;8.05;;;2.15;;
53064;SDS011;38948;48.376;-4.312;2022-08-19T03:17:03;7.15;;;1.55;;
53064;SDS011;38948;48.376;-4.312;2022-08-19T03:19:29;7.38;;;2.25;;
53064;SDS011;38948;48.376;-4.312;2022-08-19T03:21:56;5.43;;;1.50;;
53064;SDS011;38948;48.376;-4.312;2022-08-19T03:24:23;5.32;;;1.60;;
53064;SDS011;38948;48.376;-4.312;2022-08-19T03:26:51;7.60;;;2.53;;
53064;SDS011;38948;48.376;-4.312;2022-08-19T03:29:21;5.30;;;1.80;;
53064;SDS011;38948;48.376;-4.312;2022-08-19T03:31:48;3.53;;;1.23;;
53064;SDS011;38948;48.376;-4.312;2022-08-19T03:34:22;4.57;;;1.73;;
53064;SDS011;38948;48.376;-4.312;2022-08-19T03:36:53;3.78;;;1.33;;
53064;SDS011;38948;48.376;-4.312;2022-08-19T03:39:21;4.97;;;1.40;;
53064;SDS011;38948;48.376;-4.312;2022-08-19T03:41:48;5.53;;;1.30;;
53064;SDS011;38948;48.376;-4.312;2022-08-19T03:44:17;4.07;;;1.23;;
53064;SDS011;38948;48.376;-4.312;2022-08-19T03:46:47;6.88;;;1.50;;
53064;SDS011;38948;48.376;-4.312;2022-08-19T03:49:17;6.47;;;1.30;;
53064;SDS011;38948;48.376;-4.312;2022-08-19T03:51:44;5.90;;;1.55;;
53064;SDS011;38948;48.376;-4.312;2022-08-19T03:54:12;4.97;;;1.95;;
53064;SDS011;38948;48.376;-4.312;2022-08-19T03:56:40;6.18;;;1.50;;
53064;SDS011;38948;48.376;-4.312;2022-08-19T03:59:09;4.68;;;1.48;;
53064;SDS011;38948;48.376;-4.312;2022-08-19T04:01:38;5.35;;;1.70;;
53064;SDS011;38948;48.376;-4.312;2022-08-19T04:04:04;4.00;;;1.20;;
53064;SDS011;38948;48.376;-4.312;2022-08-19T04:06:32;6.00;;;1.42;;
53064;SDS011;38948;48.376;-4.312;2022-08-19T04:09:01;7.10;;;1.60;;
53064;SDS011;38948;48.376;-4.312;2022-08-19T04:11:39;5.97;;;1.92;;
53064;SDS011;38948;48.376;-4.312;2022-08-19T04:14:07;6.10;;;1.58;;
53064;SDS011;38948;48.376;-4.312;2022-08-19T04:16:35;4.85;;;1.75;;
53064;SDS011;38948;48.376;-4.312;2022-08-19T04:19:01;3.28;;;1.40;;
53064;SDS011;38948;48.376;-4.312;2022-08-19T04:21:29;8.15;;;1.25;;
53064;SDS011;38948;48.376;-4.312;2022-08-19T04:23:56;8.02;;;1.63;;
53064;SDS011;38948;48.376;-4.312;2022-08-19T04:26:23;5.47;;;1.35;;
53064;SDS011;38948;48.376;-4.312;2022-08-19T04:28:54;5.85;;;1.10;;
53064;SDS011;38948;48.376;-4.312;2022-08-19T04:31:21;7.75;;;1.92;;
53064;SDS011;38948;48.376;-4.312;2022-08-19T04:33:51;3.38;;;1.35;;
53064;SDS011;38948;48.376;-4.312;2022-08-19T04:36:20;4.70;;;1.80;;
53064;SDS011;38948;48.376;-4.312;2022-08-19T04:38:49;4.15;;;1.52;;
53064;SDS011;38948;48.376;-4.312;2022-08-19T04:41:17;6.50;;;1.70;;
53064;SDS011;38948;48.376;-4.312;2022-08-19T04:44:02;8.45;;;1.58;;
53064;SDS011;38948;48.376;-4.312;2022-08-19T04:46:28;5.30;;;1.35;;
53064;SDS011;38948;48.376;-4.312;2022-08-19T04:48:58;6.35;;;1.42;;
53064;SDS011;38948;48.376;-4.312;2022-08-19T04:51:24;6.25;;;1.15;;
53064;SDS011;38948;48.376;-4.312;2022-08-19T04:53:50;5.13;;;1.77;;
53064;SDS011;38948;48.376;-4.312;2022-08-19T04:56:17;3.85;;;1.17;;
53064;SDS011;38948;48.376;-4.312;2022-08-19T04:58:51;9.05;;;1.17;;
53064;SDS011;38948;48.376;-4.312;2022-08-19T05:01:18;6.50;;;1.80;;
53064;SDS011;38948;48.376;-4.312;2022-08-19T05:03:49;5.63;;;1.17;;
53064;SDS011;38948;48.376;-4.312;2022-08-19T05:06:16;4.80;;;1.17;;
53064;SDS011;38948;48.376;-4.312;2022-08-19T05:08:43;7.45;;;1.45;;
53064;SDS011;38948;48.376;-4.312;2022-08-19T05:13:37;10.77;;;1.65;;
53064;SDS011;38948;48.376;-4.312;2022-08-19T05:16:03;8.82;;;1.45;;
53064;SDS011;38948;48.376;-4.312;2022-08-19T05:18:29;5.25;;;1.40;;
53064;SDS011;38948;48.376;-4.312;2022-08-19T05:21:14;2.47;;;1.13;;
53064;SDS011;38948;48.376;-4.312;2022-08-19T05:24:02;5.97;;;1.27;;
53064;SDS011;38948;48.376;-4.312;2022-08-19T05:26:30;6.82;;;1.35;;
53064;SDS011;38948;48.376;-4.312;2022-08-19T05:28:56;4.75;;;1.50;;
53064;SDS011;38948;48.376;-4.312;2022-08-19T05:31:21;4.63;;;1.40;;
53064;SDS011;38948;48.376;-4.312;2022-08-19T05:33:47;5.47;;;1.15;;
53064;SDS011;38948;48.376;-4.312;2022-08-19T05:36:15;4.80;;;1.60;;
53064;SDS011;38948;48.376;-4.312;2022-08-19T05:38:40;3.97;;;1.10;;
53064;SDS011;38948;48.376;-4.312;2022-08-19T05:41:07;8.30;;;1.55;;
53064;SDS011;38948;48.376;-4.312;2022-08-19T05:43:40;5.43;;;1.60;;
53064;SDS011;38948;48.376;-4.312;2022-08-19T05:46:06;4.72;;;1.70;;
53064;SDS011;38948;48.376;-4.312;2022-08-19T05:48:34;7.65;;;1.35;;
53064;SDS011;38948;48.376;-4.312;2022-08-19T05:51:04;6.25;;;1.95;;
53064;SDS011;38948;48.376;-4.312;2022-08-19T05:53:32;5.50;;;1.40;;
53064;SDS011;38948;48.376;-4.312;2022-08-19T05:56:03;7.72;;;1.42;;
53064;SDS011;38948;48.376;-4.312;2022-08-19T05:58:30;7.95;;;1.75;;
53064;SDS011;38948;48.376;-4.312;2022-08-19T06:00:56;9.20;;;1.55;;
53064;SDS011;38948;48.376;-4.312;2022-08-19T06:03:22;7.97;;;1.45;;
53064;SDS011;38948;48.376;-4.312;2022-08-19T06:05:48;4.60;;;1.20;;
53064;SDS011;38948;48.376;-4.312;2022-08-19T06:08:13;8.07;;;1.77;;
53064;SDS011;38948;48.376;-4.312;2022-08-19T06:10:39;4.45;;;1.20;;
53064;SDS011;38948;48.376;-4.312;2022-08-19T06:13:05;5.53;;;2.28;;
53064;SDS011;38948;48.376;-4.312;2022-08-19T06:15:30;6.93;;;1.67;;
53064;SDS011;38948;48.376;-4.312;2022-08-19T06:17:56;4.82;;;1.20;;
53064;SDS011;38948;48.376;-4.312;2022-08-19T06:20:22;6.20;;;1.27;;
53064;SDS011;38948;48.376;-4.312;2022-08-19T06:22:48;7.05;;;1.15;;
53064;SDS011;38948;48.376;-4.312;2022-08-19T06:25:15;7.00;;;1.23;;
53064;SDS011;38948;48.376;-4.312;2022-08-19T06:27:42;4.45;;;1.60;;
53064;SDS011;38948;48.376;-4.312;2022-08-19T06:30:08;4.60;;;1.23;;
53064;SDS011;38948;48.376;-4.312;2022-08-19T06:32:36;6.28;;;1.50;;
53064;SDS011;38948;48.376;-4.312;2022-08-19T06:35:02;7.22;;;1.70;;
53064;SDS011;38948;48.376;-4.312;2022-08-19T06:37:29;6.43;;;1.60;;
53064;SDS011;38948;48.376;-4.312;2022-08-19T06:39:55;6.15;;;1.25;;
53064;SDS011;38948;48.376;-4.312;2022-08-19T06:42:21;7.53;;;1.73;;
53064;SDS011;38948;48.376;-4.312;2022-08-19T06:44:47;3.53;;;1.33;;
53064;SDS011;38948;48.376;-4.312;2022-08-19T06:47:15;4.72;;;1.10;;
53064;SDS011;38948;48.376;-4.312;2022-08-19T06:49:42;6.90;;;1.15;;
53064;SDS011;38948;48.376;-4.312;2022-08-19T06:52:09;5.38;;;1.77;;
53064;SDS011;38948;48.376;-4.312;2022-08-19T06:54:38;4.00;;;1.20;;
53064;SDS011;38948;48.376;-4.312;2022-08-19T06:57:04;3.42;;;1.00;;
53064;SDS011;38948;48.376;-4.312;2022-08-19T06:59:31;1.88;;;0.88;;
53064;SDS011;38948;48.376;-4.312;2022-08-19T07:01:59;13.20;;;0.90;;
53064;SDS011;38948;48.376;-4.312;2022-08-19T07:04:28;4.47;;;0.77;;
53064;SDS011;38948;48.376;-4.312;2022-08-19T07:06:59;10.63;;;1.50;;
53064;SDS011;38948;48.376;-4.312;2022-08-19T07:09:34;9.05;;;1.55;;
53064;SDS011;38948;48.376;-4.312;2022-08-19T07:12:02;3.92;;;0.70;;
53064;SDS011;38948;48.376;-4.312;2022-08-19T07:14:31;4.95;;;0.95;;
53064;SDS011;38948;48.376;-4.312;2022-08-19T07:17:00;3.70;;;0.68;;
53064;SDS011;38948;48.376;-4.312;2022-08-19T07:19:26;5.60;;;1.02;;
53064;SDS011;38948;48.376;-4.312;2022-08-19T07:21:54;6.47;;;1.00;;
53064;SDS011;38948;48.376;-4.312;2022-08-19T07:24:22;3.00;;;0.60;;
53064;SDS011;38948;48.376;-4.312;2022-08-19T07:26:50;4.50;;;0.57;;
53064;SDS011;38948;48.376;-4.312;2022-08-19T07:29:17;5.05;;;1.75;;
53064;SDS011;38948;48.376;-4.312;2022-08-19T07:31:44;2.55;;;0.60;;
53064;SDS011;38948;48.376;-4.312;2022-08-19T07:34:10;1.92;;;0.65;;
53064;SDS011;38948;48.376;-4.312;2022-08-19T07:36:39;3.70;;;0.70;;
53064;SDS011;38948;48.376;-4.312;2022-08-19T07:39:08;4.78;;;0.60;;
53064;SDS011;38948;48.376;-4.312;2022-08-19T07:41:37;1.20;;;0.40;;
53064;SDS011;38948;48.376;-4.312;2022-08-19T07:44:04;2.15;;;0.60;;
53064;SDS011;38948;48.376;-4.312;2022-08-19T07:46:33;0.82;;;0.32;;
53064;SDS011;38948;48.376;-4.312;2022-08-19T07:49:00;1.45;;;0.45;;
53064;SDS011;38948;48.376;-4.312;2022-08-19T07:51:27;2.47;;;0.30;;
53064;SDS011;38948;48.376;-4.312;2022-08-19T07:53:53;1.77;;;0.52;;
53064;SDS011;38948;48.376;-4.312;2022-08-19T07:56:20;1.40;;;0.38;;
53064;SDS011;38948;48.376;-4.312;2022-08-19T07:58:47;2.72;;;0.20;;
53064;SDS011;38948;48.376;-4.312;2022-08-19T08:01:17;2.05;;;0.40;;
53064;SDS011;38948;48.376;-4.312;2022-08-19T08:03:46;1.55;;;0.15;;
53064;SDS011;38948;48.376;-4.312;2022-08-19T08:06:31;0.73;;;0.40;;
53064;SDS011;38948;48.376;-4.312;2022-08-19T08:09:16;2.88;;;0.30;;
53064;SDS011;38948;48.376;-4.312;2022-08-19T08:11:50;2.00;;;0.43;;
53064;SDS011;38948;48.376;-4.312;2022-08-19T08:14:38;0.10;;;0.00;;
53064;SDS011;38948;48.376;-4.312;2022-08-19T08:17:07;0.13;;;0.13;;
53064;SDS011;38948;48.376;-4.312;2022-08-19T08:19:34;4.75;;;0.30;;
53064;SDS011;38948;48.376;-4.312;2022-08-19T08:22:02;1.85;;;0.30;;
53064;SDS011;38948;48.376;-4.312;2022-08-19T08:24:30;0.30;;;0.10;;
53064;SDS011;38948;48.376;-4.312;2022-08-19T08:26:57;1.13;;;0.15;;
53064;SDS011;38948;48.376;-4.312;2022-08-19T08:29:28;0.52;;;0.25;;
53064;SDS011;38948;48.376;-4.312;2022-08-19T08:31:56;0.55;;;0.10;;
53064;SDS011;38948;48.376;-4.312;2022-08-19T08:34:25;0.57;;;0.15;;
53064;SDS011;38948;48.376;-4.312;2022-08-19T08:36:51;2.67;;;0.50;;
53064;SDS011;38948;48.376;-4.312;2022-08-19T08:39:18;0.93;;;0.65;;
53064;SDS011;38948;48.376;-4.312;2022-08-19T08:44:28;1.80;;;0.80;;
53064;SDS011;38948;48.376;-4.312;2022-08-19T08:47:04;1.42;;;0.50;;
53064;SDS011;38948;48.376;-4.312;2022-08-19T08:49:41;0.57;;;0.30;;
53064;SDS011;38948;48.376;-4.312;2022-08-19T08:52:50;5.65;;;1.42;;
53064;SDS011;38948;48.376;-4.312;2022-08-19T08:55:16;3.55;;;1.42;;
53064;SDS011;38948;48.376;-4.312;2022-08-19T09:00:21;4.82;;;1.08;;
53064;SDS011;38948;48.376;-4.312;2022-08-19T09:02:47;2.58;;;1.10;;
53064;SDS011;38948;48.376;-4.312;2022-08-19T09:05:14;4.35;;;1.48;;
53064;SDS011;38948;48.376;-4.312;2022-08-19T09:07:50;4.88;;;1.08;;
53064;SDS011;38948;48.376;-4.312;2022-08-19T09:10:34;3.00;;;1.02;;
53064;SDS011;38948;48.376;-4.312;2022-08-19T09:16:02;5.22;;;0.80;;
53064;SDS011;38948;48.376;-4.312;2022-08-19T09:18:49;4.07;;;0.70;;
53064;SDS011;38948;48.376;-4.312;2022-08-19T09:21:20;2.78;;;0.70;;
53064;SDS011;38948;48.376;-4.312;2022-08-19T09:23:47;4.90;;;0.60;;
53064;SDS011;38948;48.376;-4.312;2022-08-19T09:26:15;1.92;;;0.43;;
53064;SDS011;38948;48.376;-4.312;2022-08-19T09:28:43;2.17;;;0.70;;
53064;SDS011;38948;48.376;-4.312;2022-08-19T09:31:11;4.82;;;0.75;;
53064;SDS011;38948;48.376;-4.312;2022-08-19T09:33:46;3.45;;;0.57;;
53064;SDS011;38948;48.376;-4.312;2022-08-19T09:36:13;7.60;;;0.90;;
53064;SDS011;38948;48.376;-4.312;2022-08-19T09:38:40;11.43;;;0.90;;
53064;SDS011;38948;48.376;-4.312;2022-08-19T09:41:08;4.60;;;0.60;;
53064;SDS011;38948;48.376;-4.312;2022-08-19T09:43:38;5.40;;;0.90;;
53064;SDS011;38948;48.376;-4.312;2022-08-19T09:46:06;2.60;;;0.50;;
53064;SDS011;38948;48.376;-4.312;2022-08-19T09:48:37;2.92;;;0.52;;
53064;SDS011;38948;48.376;-4.312;2022-08-19T09:51:05;2.92;;;0.60;;
53064;SDS011;38948;48.376;-4.312;2022-08-19T09:53:37;1.17;;;0.32;;
53064;SDS011;38948;48.376;-4.312;2022-08-19T09:56:04;1.27;;;0.60;;
53064;SDS011;38948;48.376;-4.312;2022-08-19T09:58:31;1.23;;;0.40;;
53064;SDS011;38948;48.376;-4.312;2022-08-19T10:01:01;1.20;;;0.50;;
53064;SDS011;38948;48.376;-4.312;2022-08-19T10:03:29;0.65;;;0.50;;
53064;SDS011;38948;48.376;-4.312;2022-08-19T10:06:00;2.45;;;0.40;;
53064;SDS011;38948;48.376;-4.312;2022-08-19T10:08:28;1.05;;;0.43;;
53064;SDS011;38948;48.376;-4.312;2022-08-19T10:10:57;1.45;;;0.30;;
53064;SDS011;38948;48.376;-4.312;2022-08-19T10:13:24;0.30;;;0.30;;
53064;SDS011;38948;48.376;-4.312;2022-08-19T10:15:53;0.98;;;0.30;;
53064;SDS011;38948;48.376;-4.312;2022-08-19T10:18:21;0.28;;;0.10;;
53064;SDS011;38948;48.376;-4.312;2022-08-19T10:20:48;1.10;;;0.50;;
53064;SDS011;38948;48.376;-4.312;2022-08-19T10:23:16;0.85;;;0.50;;
53064;SDS011;38948;48.376;-4.312;2022-08-19T10:25:45;1.75;;;0.52;;
53064;SDS011;38948;48.376;-4.312;2022-08-19T10:28:14;1.73;;;0.80;;
53064;SDS011;38948;48.376;-4.312;2022-08-19T10:30:41;0.70;;;0.60;;
53064;SDS011;38948;48.376;-4.312;2022-08-19T10:33:07;2.15;;;0.50;;
53064;SDS011;38948;48.376;-4.312;2022-08-19T10:35:36;4.63;;;0.68;;
53064;SDS011;38948;48.376;-4.312;2022-08-19T10:38:06;2.15;;;0.50;;
53064;SDS011;38948;48.376;-4.312;2022-08-19T10:40:32;2.25;;;1.00;;
53064;SDS011;38948;48.376;-4.312;2022-08-19T10:42:57;2.60;;;0.40;;
53064;SDS011;38948;48.376;-4.312;2022-08-19T10:45:23;3.15;;;0.60;;
53064;SDS011;38948;48.376;-4.312;2022-08-19T10:47:54;2.45;;;0.70;;
53064;SDS011;38948;48.376;-4.312;2022-08-19T10:50:20;3.90;;;0.68;;
53064;SDS011;38948;48.376;-4.312;2022-08-19T10:53:05;3.47;;;1.02;;
53064;SDS011;38948;48.376;-4.312;2022-08-19T10:55:35;2.50;;;1.10;;
53064;SDS011;38948;48.376;-4.312;2022-08-19T10:58:20;5.72;;;0.70;;
53064;SDS011;38948;48.376;-4.312;2022-08-19T11:00:52;2.17;;;0.50;;
53064;SDS011;38948;48.376;-4.312;2022-08-19T11:03:22;1.10;;;0.60;;
53064;SDS011;38948;48.376;-4.312;2022-08-19T11:05:59;2.83;;;1.38;;
53064;SDS011;38948;48.376;-4.312;2022-08-19T11:08:29;3.20;;;0.68;;
53064;SDS011;38948;48.376;-4.312;2022-08-19T11:10:57;3.22;;;0.80;;
53064;SDS011;38948;48.376;-4.312;2022-08-19T11:13:34;2.33;;;0.95;;
53064;SDS011;38948;48.376;-4.312;2022-08-19T11:16:04;6.60;;;1.05;;
53064;SDS011;38948;48.376;-4.312;2022-08-19T11:18:43;3.30;;;0.85;;
53064;SDS011;38948;48.376;-4.312;2022-08-19T11:21:15;3.95;;;0.88;;
53064;SDS011;38948;48.376;-4.312;2022-08-19T11:23:46;4.00;;;0.90;;
53064;SDS011;38948;48.376;-4.312;2022-08-19T11:26:13;3.70;;;0.95;;
53064;SDS011;38948;48.376;-4.312;2022-08-19T11:28:40;1.77;;;0.70;;
53064;SDS011;38948;48.376;-4.312;2022-08-19T11:31:10;5.63;;;0.80;;
53064;SDS011;38948;48.376;-4.312;2022-08-19T11:33:42;2.65;;;1.20;;
53064;SDS011;38948;48.376;-4.312;2022-08-19T11:36:08;52.45;;;14.45;;
53064;SDS011;38948;48.376;-4.312;2022-08-19T11:38:35;48.95;;;17.45;;
53064;SDS011;38948;48.376;-4.312;2022-08-19T11:41:02;34.20;;;9.55;;
53064;SDS011;38948;48.376;-4.312;2022-08-19T11:43:33;37.95;;;9.73;;
53064;SDS011;38948;48.376;-4.312;2022-08-19T11:45:59;26.13;;;8.10;;
53064;SDS011;38948;48.376;-4.312;2022-08-19T11:48:31;20.95;;;6.80;;
53064;SDS011;38948;48.376;-4.312;2022-08-19T11:50:57;14.32;;;5.65;;
53064;SDS011;38948;48.376;-4.312;2022-08-19T11:53:23;32.30;;;9.13;;
53064;SDS011;38948;48.376;-4.312;2022-08-19T11:55:49;17.05;;;6.00;;
53064;SDS011;38948;48.376;-4.312;2022-08-19T11:58:20;16.75;;;5.53;;
53064;SDS011;38948;48.376;-4.312;2022-08-19T12:00:47;16.88;;;5.68;;
53064;SDS011;38948;48.376;-4.312;2022-08-19T12:03:13;13.55;;;3.97;;
53064;SDS011;38948;48.376;-4.312;2022-08-19T12:05:39;10.68;;;3.20;;
53064;SDS011;38948;48.376;-4.312;2022-08-19T12:08:06;8.55;;;2.75;;
53064;SDS011;38948;48.376;-4.312;2022-08-19T12:10:33;5.03;;;1.90;;
53064;SDS011;38948;48.376;-4.312;2022-08-19T12:12:59;10.75;;;1.92;;
53064;SDS011;38948;48.376;-4.312;2022-08-19T12:15:26;3.38;;;1.30;;
53064;SDS011;38948;48.376;-4.312;2022-08-19T12:17:54;5.38;;;1.10;;
53064;SDS011;38948;48.376;-4.312;2022-08-19T12:20:22;5.05;;;1.23;;
53064;SDS011;38948;48.376;-4.312;2022-08-19T12:22:49;11.27;;;1.40;;
53064;SDS011;38948;48.376;-4.312;2022-08-19T12:25:15;7.25;;;1.20;;
53064;SDS011;38948;48.376;-4.312;2022-08-19T12:27:42;6.60;;;1.10;;
53064;SDS011;38948;48.376;-4.312;2022-08-19T12:30:09;7.68;;;1.27;;
53064;SDS011;38948;48.376;-4.312;2022-08-19T12:32:37;5.32;;;1.48;;
53064;SDS011;38948;48.376;-4.312;2022-08-19T12:35:04;9.63;;;1.98;;
53064;SDS011;38948;48.376;-4.312;2022-08-19T12:37:31;3.17;;;0.77;;
53064;SDS011;38948;48.376;-4.312;2022-08-19T12:39:57;3.92;;;1.25;;
53064;SDS011;38948;48.376;-4.312;2022-08-19T12:42:23;4.35;;;0.98;;
53064;SDS011;38948;48.376;-4.312;2022-08-19T12:44:49;5.88;;;1.25;;
53064;SDS011;38948;48.376;-4.312;2022-08-19T12:47:16;4.32;;;0.73;;
53064;SDS011;38948;48.376;-4.312;2022-08-19T12:49:43;3.53;;;1.00;;
53064;SDS011;38948;48.376;-4.312;2022-08-19T12:52:09;3.67;;;1.20;;
53064;SDS011;38948;48.376;-4.312;2022-08-19T12:54:36;3.50;;;1.00;;
53064;SDS011;38948;48.376;-4.312;2022-08-19T12:57:06;3.05;;;0.98;;
53064;SDS011;38948;48.376;-4.312;2022-08-19T12:59:33;3.08;;;0.82;;
53064;SDS011;38948;48.376;-4.312;2022-08-19T13:02:01;4.35;;;1.10;;
53064;SDS011;38948;48.376;-4.312;2022-08-19T13:04:31;3.60;;;1.20;;
53064;SDS011;38948;48.376;-4.312;2022-08-19T13:07:00;3.00;;;0.98;;
53064;SDS011;38948;48.376;-4.312;2022-08-19T13:09:26;3.17;;;0.70;;
53064;SDS011;38948;48.376;-4.312;2022-08-19T13:11:52;6.70;;;1.27;;
53064;SDS011;38948;48.376;-4.312;2022-08-19T13:14:18;2.80;;;1.00;;
53064;SDS011;38948;48.376;-4.312;2022-08-19T13:16:43;6.65;;;1.30;;
53064;SDS011;38948;48.376;-4.312;2022-08-19T13:19:09;4.05;;;0.95;;
53064;SDS011;38948;48.376;-4.312;2022-08-19T13:21:36;3.38;;;0.95;;
53064;SDS011;38948;48.376;-4.312;2022-08-19T13:24:02;2.25;;;0.73;;
53064;SDS011;38948;48.376;-4.312;2022-08-19T13:26:28;2.25;;;0.77;;
53064;SDS011;38948;48.376;-4.312;2022-08-19T13:29:00;3.35;;;0.82;;
53064;SDS011;38948;48.376;-4.312;2022-08-19T13:31:47;2.75;;;0.98;;
53064;SDS011;38948;48.376;-4.312;2022-08-19T13:34:33;8.68;;;1.63;;
53064;SDS011;38948;48.376;-4.312;2022-08-19T13:37:02;5.07;;;1.17;;
53064;SDS011;38948;48.376;-4.312;2022-08-19T13:39:32;4.00;;;1.10;;
53064;SDS011;38948;48.376;-4.312;2022-08-19T13:41:59;3.63;;;0.93;;
53064;SDS011;38948;48.376;-4.312;2022-08-19T13:44:29;3.95;;;0.90;;
53064;SDS011;38948;48.376;-4.312;2022-08-19T13:47:03;5.63;;;1.00;;
53064;SDS011;38948;48.376;-4.312;2022-08-19T13:49:32;6.75;;;1.00;;
53064;SDS011;38948;48.376;-4.312;2022-08-19T13:51:58;3.88;;;1.20;;
53064;SDS011;38948;48.376;-4.312;2022-08-19T13:54:30;4.72;;;1.10;;
53064;SDS011;38948;48.376;-4.312;2022-08-19T13:56:56;4.53;;;0.70;;
53064;SDS011;38948;48.376;-4.312;2022-08-19T13:59:22;5.95;;;1.00;;
53064;SDS011;38948;48.376;-4.312;2022-08-19T14:01:48;5.65;;;0.80;;
53064;SDS011;38948;48.376;-4.312;2022-08-19T14:04:14;4.40;;;1.10;;
53064;SDS011;38948;48.376;-4.312;2022-08-19T14:06:40;2.90;;;0.90;;
53064;SDS011;38948;48.376;-4.312;2022-08-19T14:09:06;4.07;;;1.10;;
53064;SDS011;38948;48.376;-4.312;2022-08-19T14:11:32;4.65;;;0.82;;
53064;SDS011;38948;48.376;-4.312;2022-08-19T14:13:58;2.55;;;1.25;;
53064;SDS011;38948;48.376;-4.312;2022-08-19T14:16:24;4.85;;;1.00;;
53064;SDS011;38948;48.376;-4.312;2022-08-19T14:18:50;3.30;;;1.08;;
53064;SDS011;38948;48.376;-4.312;2022-08-19T14:21:17;6.15;;;1.33;;
53064;SDS011;38948;48.376;-4.312;2022-08-19T14:23:46;4.60;;;1.08;;
53064;SDS011;38948;48.376;-4.312;2022-08-19T14:26:13;3.15;;;0.80;;
53064;SDS011;38948;48.376;-4.312;2022-08-19T14:28:40;3.38;;;0.70;;
53064;SDS011;38948;48.376;-4.312;2022-08-19T14:31:14;3.92;;;0.82;;
53064;SDS011;38948;48.376;-4.312;2022-08-19T14:33:41;2.83;;;0.80;;
53064;SDS011;38948;48.376;-4.312;2022-08-19T14:36:07;2.88;;;0.70;;
53064;SDS011;38948;48.376;-4.312;2022-08-19T14:38:33;8.85;;;1.20;;
53064;SDS011;38948;48.376;-4.312;2022-08-19T14:41:14;7.38;;;1.33;;
53064;SDS011;38948;48.376;-4.312;2022-08-19T14:43:50;7.00;;;0.95;;
53064;SDS011;38948;48.376;-4.312;2022-08-19T14:46:18;2.30;;;0.77;;
53064;SDS011;38948;48.376;-4.312;2022-08-19T14:48:46;7.07;;;1.10;;
53064;SDS011;38948;48.376;-4.312;2022-08-19T14:51:13;8.65;;;1.13;;
53064;SDS011;38948;48.376;-4.312;2022-08-19T14:53:39;4.53;;;1.10;;